Time;durP1;ratioP1;P1;durP2;ratioP2;P2;SDS_P1;SDS_P2;PMS_P1;PMS_P2;Temp;Humidity;BMP_temperature;BMP_pressure;BME280_temperature;BME280_humidity;BME280_pressure;Samples;Min_cycle;Max_cycle;Signal;HPM_P1;HPM_P2
2023/08/10 00:00:39;;;;;;;3.83;2.35;;;;;;;12.67;100.00;101063.56;6053287;29;20048;-94
2023/08/10 00:03:41;;;;;;;4.32;2.70;;;;;;;12.67;100.00;101066.16;6048394;29;20045;-93
2023/08/10 00:06:44;;;;;;;3.63;2.72;;;;;;;12.66;100.00;101066.28;6058735;29;20516;-94
2023/08/10 00:09:46;;;;;;;3.78;2.90;;;;;;;12.66;100.00;101067.09;6045401;29;20490;-94
2023/08/10 00:12:48;;;;;;;4.28;2.92;;;;;;;12.67;100.00;101071.38;6048232;29;20054;-94
2023/08/10 00:15:49;;;;;;;3.72;2.83;;;;;;;12.69;100.00;101073.81;6069290;29;20045;-94
2023/08/10 00:18:51;;;;;;;3.30;2.90;;;;;;;12.70;100.00;101078.09;6052975;29;20598;-94
2023/08/10 00:21:53;;;;;;;3.70;2.80;;;;;;;12.67;100.00;101079.16;6069823;29;20055;-94
2023/08/10 00:24:55;;;;;;;5.70;2.55;;;;;;;12.66;100.00;101081.88;6066868;29;20041;-94
2023/08/10 00:27:57;;;;;;;2.85;2.55;;;;;;;12.70;100.00;101080.69;6048772;29;20041;-95
2023/08/10 00:31:01;;;;;;;5.75;2.38;;;;;;;12.75;100.00;101073.34;6033991;29;20467;-95
2023/08/10 00:34:03;;;;;;;3.28;2.33;;;;;;;12.70;100.00;101076.31;6051712;29;20547;-95
2023/08/10 00:37:05;;;;;;;5.05;2.45;;;;;;;12.63;100.00;101071.72;6048879;29;20033;-94
2023/08/10 00:40:12;;;;;;;5.43;2.13;;;;;;;12.54;100.00;101073.25;6031801;29;20060;-95
2023/08/10 00:43:15;;;;;;;5.28;2.22;;;;;;;12.46;100.00;101079.06;6070063;29;20053;-94
2023/08/10 00:46:18;;;;;;;5.43;2.20;;;;;;;12.40;100.00;101083.91;6042800;29;20471;-95
2023/08/10 00:49:20;;;;;;;4.15;2.45;;;;;;;12.33;100.00;101088.75;6051362;29;20398;-94
2023/08/10 00:52:22;;;;;;;3.10;2.00;;;;;;;12.26;100.00;101088.38;6056882;29;20538;-94
2023/08/10 00:55:27;;;;;;;5.78;3.00;;;;;;;12.19;100.00;101095.00;6053005;29;20052;-95
2023/08/10 00:58:35;;;;;;;4.18;2.05;;;;;;;12.11;100.00;101093.94;6061751;29;20049;-95
2023/08/10 01:01:43;;;;;;;4.05;2.13;;;;;;;12.05;100.00;101090.06;6034130;29;20053;-95
2023/08/10 01:04:45;;;;;;;7.00;2.15;;;;;;;12.01;100.00;101101.59;6053960;29;20052;-94
2023/08/10 01:08:00;;;;;;;2.97;2.00;;;;;;;11.99;100.00;101096.50;6036878;29;20052;-94
2023/08/10 01:11:34;;;;;;;3.35;2.22;;;;;;;11.96;100.00;101107.13;6047960;29;20056;-95
2023/08/10 01:15:15;;;;;;;4.68;2.22;;;;;;;11.90;100.00;101107.59;6051982;29;20052;-95
2023/08/10 01:18:25;;;;;;;4.20;2.50;;;;;;;11.85;100.00;101105.31;6045935;29;20053;-94
2023/08/10 01:21:48;;;;;;;4.63;2.30;;;;;;;11.80;100.00;101112.63;6068618;29;20048;-94
2023/08/10 01:25:02;;;;;;;3.55;2.38;;;;;;;11.77;100.00;101118.00;6065984;29;20160;-94
2023/08/10 01:28:05;;;;;;;6.18;2.40;;;;;;;11.73;100.00;101114.00;6045196;29;20158;-94
2023/08/10 01:31:07;;;;;;;3.55;2.50;;;;;;;11.69;100.00;101119.53;6059365;29;20222;-95
2023/08/10 01:34:09;;;;;;;5.22;2.40;;;;;;;11.65;100.00;101108.56;6070020;29;20137;-94
2023/08/10 01:37:11;;;;;;;4.40;2.30;;;;;;;11.61;100.00;101110.56;6073250;29;20499;-94
2023/08/10 01:40:13;;;;;;;5.30;2.40;;;;;;;11.58;100.00;101115.97;6055917;29;20184;-94
2023/08/10 01:43:15;;;;;;;4.47;2.10;;;;;;;11.54;100.00;101116.31;6053906;29;20049;-93
2023/08/10 01:46:21;;;;;;;7.57;2.70;;;;;;;11.51;100.00;101116.53;6056634;29;20087;-94
2023/08/10 01:49:25;;;;;;;5.63;2.95;;;;;;;11.50;100.00;101120.91;6059447;29;20048;-94
2023/08/10 01:52:33;;;;;;;8.30;2.50;;;;;;;11.46;100.00;101124.66;6041553;29;20068;-93
2023/08/10 01:55:35;;;;;;;3.05;2.17;;;;;;;11.43;100.00;101122.28;6063231;29;20060;-93
2023/08/10 01:58:37;;;;;;;4.68;2.50;;;;;;;11.41;100.00;101124.97;6041123;29;20048;-93
2023/08/10 02:01:39;;;;;;;4.07;1.90;;;;;;;11.38;100.00;101125.22;6056481;29;20056;-94
2023/08/10 02:04:41;;;;;;;4.57;2.42;;;;;;;11.37;100.00;101115.75;6075523;29;20044;-93
2023/08/10 02:07:48;;;;;;;6.85;2.50;;;;;;;11.35;100.00;101122.00;6072205;29;20055;-93
2023/08/10 02:10:50;;;;;;;3.15;2.20;;;;;;;11.36;100.00;101128.84;6082743;29;20041;-93
2023/08/10 02:13:52;;;;;;;8.20;2.42;;;;;;;11.34;100.00;101126.38;6072526;29;20071;-95
2023/08/10 02:16:54;;;;;;;5.20;2.65;;;;;;;11.36;100.00;101134.03;6055561;29;20171;-93
2023/08/10 02:19:56;;;;;;;5.00;2.45;;;;;;;11.38;100.00;101140.75;6054296;29;20059;-93
2023/08/10 02:22:58;;;;;;;5.30;2.28;;;;;;;11.34;100.00;101134.13;6055132;29;20108;-94
2023/08/10 02:26:00;;;;;;;2.67;2.03;;;;;;;11.31;100.00;101136.97;6054418;29;20047;-92
2023/08/10 02:29:02;;;;;;;2.42;2.15;;;;;;;11.32;100.00;101140.38;6071415;29;20075;-93
2023/08/10 02:32:04;;;;;;;5.05;2.28;;;;;;;11.36;100.00;101147.81;6052842;29;20040;-92
2023/08/10 02:35:06;;;;;;;6.47;2.40;;;;;;;11.37;100.00;101146.88;6077462;29;20048;-94
2023/08/10 02:38:08;;;;;;;3.42;2.15;;;;;;;11.41;100.00;101144.91;6054540;29;20092;-95
2023/08/10 02:41:10;;;;;;;5.07;2.40;;;;;;;11.39;100.00;101145.00;6074352;29;20040;-93
2023/08/10 02:44:12;;;;;;;4.80;2.30;;;;;;;11.36;100.00;101145.22;6056113;29;20575;-93
2023/08/10 02:47:14;;;;;;;3.42;2.47;;;;;;;11.34;100.00;101152.28;6071726;29;20068;-93
2023/08/10 02:50:15;;;;;;;3.90;2.72;;;;;;;11.30;100.00;101142.25;6044344;29;20075;-93
2023/08/10 02:53:17;;;;;;;4.47;2.88;;;;;;;11.33;100.00;101153.22;6063561;29;20560;-90
2023/08/10 02:56:19;;;;;;;6.28;2.60;;;;;;;11.35;100.00;101147.91;6063660;29;20045;-90
2023/08/10 02:59:21;;;;;;;4.07;2.47;;;;;;;11.35;100.00;101151.38;6056729;29;20040;-90
2023/08/10 03:02:23;;;;;;;4.38;2.30;;;;;;;11.36;100.00;101147.81;6065726;29;20099;-91
2023/08/10 03:05:25;;;;;;;5.20;2.72;;;;;;;11.35;100.00;101156.56;6052944;29;20049;-89
2023/08/10 03:08:27;;;;;;;3.30;2.00;;;;;;;11.32;100.00;101153.34;6073444;29;20180;-91
2023/08/10 03:11:30;;;;;;;3.55;2.15;;;;;;;11.34;100.00;101159.25;6055944;29;20045;-90
2023/08/10 03:14:33;;;;;;;3.55;2.20;;;;;;;11.35;100.00;101169.50;6056552;29;20408;-90
2023/08/10 03:17:35;;;;;;;3.05;1.85;;;;;;;11.38;100.00;101165.88;6039387;29;20056;-90
2023/08/10 03:20:38;;;;;;;5.90;2.30;;;;;;;11.35;100.00;101153.97;6054610;29;20059;-91
2023/08/10 03:23:40;;;;;;;3.60;2.15;;;;;;;11.32;100.00;101158.50;6054791;29;20635;-90
2023/08/10 03:26:42;;;;;;;2.15;1.73;;;;;;;11.27;100.00;101147.66;6050696;29;20073;-90
2023/08/10 03:29:44;;;;;;;3.10;1.88;;;;;;;11.22;100.00;101155.75;6064723;29;20485;-90
2023/08/10 03:32:46;;;;;;;2.95;1.92;;;;;;;11.15;100.00;101157.94;6056347;29;20574;-90
2023/08/10 03:35:48;;;;;;;4.82;1.83;;;;;;;11.10;100.00;101152.25;6065549;29;20065;-90
2023/08/10 03:38:50;;;;;;;3.42;1.77;;;;;;;11.08;100.00;101156.75;6064118;29;20048;-90
2023/08/10 03:41:53;;;;;;;5.13;1.50;;;;;;;11.11;100.00;101153.13;6055145;29;20094;-90
2023/08/10 03:44:55;;;;;;;4.43;1.75;;;;;;;11.13;100.00;101164.16;6037034;29;20756;-91
2023/08/10 03:47:57;;;;;;;4.78;1.80;;;;;;;11.19;100.00;101171.53;6047589;29;20052;-91
2023/08/10 03:51:00;;;;;;;3.90;1.83;;;;;;;11.22;100.00;101168.72;6055576;29;20052;-91
2023/08/10 03:54:02;;;;;;;6.40;2.40;;;;;;;11.27;100.00;101170.97;6071957;29;20104;-90
2023/08/10 03:57:03;;;;;;;3.75;2.10;;;;;;;11.30;100.00;101168.16;6072178;29;20045;-91
2023/08/10 04:00:06;;;;;;;4.95;2.05;;;;;;;11.32;100.00;101171.47;6054659;29;20045;-91
2023/08/10 04:03:17;;;;;;;3.83;2.35;;;;;;;11.30;100.00;101170.75;6071865;29;20107;-90
2023/08/10 04:06:19;;;;;;;3.90;2.00;;;;;;;11.27;100.00;101176.16;6071062;29;20051;-90
2023/08/10 04:09:21;;;;;;;3.42;1.63;;;;;;;11.23;100.00;101182.50;6055524;29;20108;-90
2023/08/10 04:12:23;;;;;;;3.55;1.75;;;;;;;11.28;100.00;101178.66;6034528;29;20052;-90
2023/08/10 04:15:25;;;;;;;3.22;1.60;;;;;;;11.34;100.00;101182.56;6061071;29;20525;-90
2023/08/10 04:18:26;;;;;;;3.15;1.98;;;;;;;11.34;100.00;101193.75;6045247;29;20048;-90
2023/08/10 04:21:28;;;;;;;2.67;1.50;;;;;;;11.33;100.00;101183.47;6049497;29;20144;-91
2023/08/10 04:24:30;;;;;;;5.32;1.67;;;;;;;11.28;100.00;101183.00;6053008;29;20072;-90
2023/08/10 04:27:32;;;;;;;3.85;1.58;;;;;;;11.21;100.00;101187.81;6062610;29;20053;-91
2023/08/10 04:30:33;;;;;;;4.68;1.70;;;;;;;11.13;100.00;101183.16;6051060;29;20076;-90
2023/08/10 04:33:35;;;;;;;4.40;1.65;;;;;;;11.10;100.00;101191.13;6037476;29;20049;-90
2023/08/10 04:36:37;;;;;;;2.75;1.70;;;;;;;11.09;100.00;101189.50;6053110;29;20052;-89
2023/08/10 04:39:39;;;;;;;2.15;1.40;;;;;;;11.14;100.00;101192.56;6055077;29;20562;-90
2023/08/10 04:42:41;;;;;;;2.28;1.55;;;;;;;11.20;100.00;101193.91;6072294;29;20048;-90
2023/08/10 04:45:43;;;;;;;3.95;1.52;;;;;;;11.31;100.00;101196.56;6072234;29;20613;-90
2023/08/10 04:48:45;;;;;;;2.80;1.48;;;;;;;11.45;100.00;101210.31;6055657;29;20055;-91
2023/08/10 04:51:47;;;;;;;7.53;1.85;;;;;;;11.58;100.00;101208.50;6071576;29;20044;-90
2023/08/10 04:54:49;;;;;;;3.90;1.58;;;;;;;11.67;100.00;101209.59;6053183;29;20053;-90
2023/08/10 04:57:52;;;;;;;6.78;1.90;;;;;;;11.70;100.00;101212.81;6059186;29;20598;-90
2023/08/10 05:00:53;;;;;;;4.45;2.20;;;;;;;11.72;100.00;101218.69;6041034;29;20052;-90
2023/08/10 05:03:56;;;;;;;3.20;1.90;;;;;;;11.74;100.00;101216.81;6054139;29;20053;-90
2023/08/10 05:06:57;;;;;;;3.22;1.70;;;;;;;11.76;100.00;101214.94;6059756;29;20053;-90
2023/08/10 05:10:04;;;;;;;5.13;2.05;;;;;;;11.85;100.00;101216.88;6058777;29;20135;-90
2023/08/10 05:13:06;;;;;;;4.85;2.03;;;;;;;12.02;100.00;101217.41;6058612;29;20041;-90
2023/08/10 05:16:08;;;;;;;6.13;2.15;;;;;;;12.12;100.00;101214.94;6070263;29;20076;-91
2023/08/10 05:19:10;;;;;;;5.00;1.80;;;;;;;12.13;100.00;101214.84;6057515;29;20036;-91
2023/08/10 05:22:12;;;;;;;3.88;1.80;;;;;;;12.12;100.00;101212.34;6058648;29;20179;-91
2023/08/10 05:25:14;;;;;;;5.63;2.17;;;;;;;12.05;100.00;101218.03;6076234;29;20048;-90
2023/08/10 05:28:19;;;;;;;2.40;1.90;;;;;;;12.02;100.00;101210.47;6055359;29;20045;-91
2023/08/10 05:31:21;;;;;;;1.70;1.40;;;;;;;12.00;100.00;101214.09;6056266;29;20120;-91
2023/08/10 05:34:24;;;;;;;2.78;2.00;;;;;;;11.99;100.00;101218.47;6051330;29;20051;-91
2023/08/10 05:37:25;;;;;;;6.03;2.03;;;;;;;12.02;100.00;101215.66;6059058;29;20403;-91
2023/08/10 05:40:27;;;;;;;3.83;1.75;;;;;;;12.10;100.00;101209.91;6050900;29;20160;-91
2023/08/10 05:43:29;;;;;;;4.72;2.25;;;;;;;12.28;100.00;101220.66;6057042;29;20503;-92
2023/08/10 05:46:31;;;;;;;3.63;2.10;;;;;;;12.44;100.00;101218.56;6057899;29;20040;-91
2023/08/10 05:49:33;;;;;;;4.70;2.80;;;;;;;12.49;100.00;101218.22;6073425;29;20047;-90
2023/08/10 05:52:35;;;;;;;7.75;2.60;;;;;;;12.49;100.00;101210.41;6066682;29;20096;-91
2023/08/10 05:55:37;;;;;;;5.15;2.80;;;;;;;12.42;100.00;101212.66;6055906;29;20041;-90
2023/08/10 05:58:40;;;;;;;5.55;2.92;;;;;;;12.41;100.00;101213.59;6068034;29;20710;-90
2023/08/10 06:01:43;;;;;;;6.00;2.55;;;;;;;12.40;100.00;101208.53;6071086;29;20069;-90
2023/08/10 06:04:45;;;;;;;6.38;2.80;;;;;;;12.43;100.00;101214.31;6057542;29;20045;-90
2023/08/10 06:07:47;;;;;;;9.40;3.25;;;;;;;12.51;100.00;101218.91;6049203;29;20194;-91
2023/08/10 06:10:51;;;;;;;5.45;3.38;;;;;;;12.57;100.00;101221.06;6069044;29;20613;-91
2023/08/10 06:13:53;;;;;;;7.47;3.10;;;;;;;12.61;100.00;101213.84;6069025;29;20069;-91
2023/08/10 06:16:55;;;;;;;5.43;2.72;;;;;;;12.66;100.00;101219.53;6057985;29;20084;-91
2023/08/10 06:19:57;;;;;;;6.88;3.70;;;;;;;12.70;100.00;101226.97;6068602;29;20044;-91
2023/08/10 06:23:01;;;;;;;9.05;3.30;;;;;;;12.82;100.00;101224.34;6051217;29;20046;-90
2023/08/10 06:26:05;;;;;;;5.95;3.10;;;;;;;12.90;100.00;101229.81;6058948;29;20135;-92
2023/08/10 06:29:07;;;;;;;7.20;3.00;;;;;;;12.96;100.00;101225.91;6050576;29;20076;-91
2023/08/10 06:32:08;;;;;;;6.00;3.50;;;;;;;13.02;100.00;101231.47;6072543;29;20051;-91
2023/08/10 06:35:11;;;;;;;8.60;3.55;;;;;;;13.09;100.00;101232.63;6056320;29;20131;-91
2023/08/10 06:38:13;;;;;;;6.80;3.20;;;;;;;13.21;100.00;101243.00;6065911;29;20189;-91
2023/08/10 06:41:16;;;;;;;10.13;4.63;;;;;;;13.38;100.00;101244.31;6053128;29;20534;-92
2023/08/10 06:44:17;;;;;;;8.73;3.75;;;;;;;13.58;100.00;101231.34;6060770;29;20385;-91
2023/08/10 06:47:19;;;;;;;8.27;3.17;;;;;;;13.81;100.00;101223.47;6069183;29;20153;-91
2023/08/10 06:50:21;;;;;;;10.07;3.53;;;;;;;14.02;100.00;101226.09;6067076;29;20044;-91
2023/08/10 06:53:23;;;;;;;7.45;3.42;;;;;;;14.19;100.00;101214.28;6069357;29;20036;-91
2023/08/10 06:56:25;;;;;;;6.35;3.00;;;;;;;14.39;100.00;101215.22;6073689;29;20060;-91
2023/08/10 06:59:27;;;;;;;9.27;3.00;;;;;;;14.50;100.00;101209.09;6046485;29;20056;-91
2023/08/10 07:02:50;;;;;;;4.95;2.85;;;;;;;14.48;100.00;101197.97;6051125;29;20053;-93
2023/08/10 07:05:52;;;;;;;7.93;2.30;;;;;;;14.40;100.00;101204.66;6072975;29;20041;-94
2023/08/10 07:08:54;;;;;;;7.75;3.10;;;;;;;14.26;100.00;101207.63;6073510;29;20053;-94
2023/08/10 07:11:55;;;;;;;7.20;2.53;;;;;;;14.21;100.00;101209.78;6051099;29;20085;-93
2023/08/10 07:14:58;;;;;;;5.93;2.45;;;;;;;14.19;100.00;101201.28;6073256;29;20044;-93
2023/08/10 07:18:00;;;;;;;9.80;2.50;;;;;;;14.24;100.00;101206.91;6073110;29;20044;-94
2023/08/10 07:21:06;;;;;;;5.65;2.50;;;;;;;14.27;100.00;101208.44;6056869;29;20045;-93
2023/08/10 07:24:08;;;;;;;5.93;2.17;;;;;;;14.28;100.00;101197.06;6055625;29;20051;-93
2023/08/10 07:27:10;;;;;;;3.60;1.90;;;;;;;14.41;100.00;101200.31;6073382;29;20059;-93
2023/08/10 07:30:15;;;;;;;5.95;1.80;;;;;;;14.68;100.00;101198.91;6069439;29;20041;-93
2023/08/10 07:33:17;;;;;;;6.00;1.90;;;;;;;15.00;100.00;101190.94;6072124;29;20052;-93
2023/08/10 07:36:19;;;;;;;6.57;2.03;;;;;;;15.27;100.00;101187.69;6060245;29;20045;-94
2023/08/10 07:39:21;;;;;;;5.40;1.70;;;;;;;15.62;100.00;101187.16;6066956;29;20415;-94
2023/08/10 07:42:23;;;;;;;6.95;2.15;;;;;;;16.00;100.00;101192.50;6072689;29;20510;-94
2023/08/10 07:45:25;;;;;;;7.00;1.80;;;;;;;16.40;100.00;101192.28;6071871;29;20095;-94
2023/08/10 07:48:27;;;;;;;6.80;1.90;;;;;;;16.90;100.00;101181.50;6064486;29;20044;-91
2023/08/10 07:51:29;;;;;;;8.07;1.90;;;;;;;17.45;100.00;101175.34;6060578;29;20361;-92
2023/08/10 07:54:31;;;;;;;4.82;1.73;;;;;;;17.71;100.00;101167.53;6035057;29;20056;-92
2023/08/10 07:57:34;;;;;;;5.10;1.95;;;;;;;17.61;100.00;101172.03;6071267;29;20164;-92
2023/08/10 08:00:38;;;;;;;6.85;1.70;;;;;;;17.29;100.00;101178.66;6065567;29;20056;-92
2023/08/10 08:03:40;;;;;;;4.95;1.58;;;;;;;16.88;100.00;101178.19;6044250;29;20052;-92
2023/08/10 08:06:43;;;;;;;4.78;1.85;;;;;;;16.65;100.00;101177.75;6070210;29;20075;-92
2023/08/10 08:09:45;;;;;;;2.95;2.05;;;;;;;16.53;100.00;101177.09;6061294;29;20168;-92
2023/08/10 08:12:47;;;;;;;4.97;1.58;;;;;;;16.52;100.00;101175.47;6062585;29;20048;-92
2023/08/10 08:15:49;;;;;;;4.57;1.45;;;;;;;16.40;100.00;101181.00;6046520;29;20041;-93
2023/08/10 08:18:55;;;;;;;5.57;1.40;;;;;;;16.27;100.00;101176.94;6072809;29;20415;-93
2023/08/10 08:22:02;;;;;;;4.53;1.58;;;;;;;16.14;100.00;101179.84;6070552;29;20060;-92
2023/08/10 08:25:12;;;;;;;3.38;1.23;;;;;;;16.18;100.00;101182.19;6060516;29;20535;-92
2023/08/10 08:28:26;;;;;;;3.63;1.45;;;;;;;16.47;100.00;101185.53;6073285;29;20135;-93
2023/08/10 08:31:33;;;;;;;7.60;1.90;;;;;;;16.98;100.00;101184.19;6068163;29;20415;-93
2023/08/10 08:34:42;;;;;;;4.43;1.55;;;;;;;17.34;100.00;101178.16;6051692;29;20072;-93
2023/08/10 08:37:58;;;;;;;6.05;1.30;;;;;;;17.47;100.00;101193.53;6076533;29;20103;-92
2023/08/10 08:41:22;;;;;;;2.83;1.08;;;;;;;17.32;100.00;101183.56;6077186;29;20048;-93
2023/08/10 08:44:29;;;;;;;4.20;1.23;;;;;;;17.03;100.00;101193.41;6068838;29;20055;-93
2023/08/10 08:47:54;;;;;;;7.35;1.20;;;;;;;16.82;100.00;101184.03;6046634;29;20048;-90
2023/08/10 08:50:57;;;;;;;3.63;1.27;;;;;;;16.54;100.00;101193.59;6064274;29;20076;-93
2023/08/10 08:54:18;;;;;;;5.82;1.63;;;;;;;16.27;100.00;101197.84;6070898;29;20056;-92
2023/08/10 08:57:38;;;;;;;3.17;1.10;;;;;;;16.30;100.00;101186.28;6057111;29;20067;-91
2023/08/10 09:00:52;;;;;;;2.00;1.30;;;;;;;16.64;100.00;101188.34;6040955;29;20423;-91
2023/08/10 09:04:13;;;;;;;5.38;1.13;;;;;;;17.17;100.00;101192.91;6071683;29;20411;-91
2023/08/10 09:07:15;;;;;;;2.80;1.20;;;;;;;17.80;100.00;101195.47;6064917;29;20522;-91
2023/08/10 09:10:29;;;;;;;2.35;1.30;;;;;;;18.33;100.00;101191.06;6073949;29;20043;-91
2023/08/10 09:13:45;;;;;;;2.03;1.20;;;;;;;18.20;100.00;101188.84;6068671;29;20432;-91
2023/08/10 09:16:50;;;;;;;4.18;1.30;;;;;;;17.98;100.00;101189.38;6020825;29;20106;-90
2023/08/10 09:20:14;;;;;;;3.03;1.38;;;;;;;17.97;100.00;101187.72;6021858;29;20060;-91
2023/08/10 09:23:35;;;;;;;4.05;1.30;;;;;;;17.87;100.00;101190.44;6020499;29;20085;-91
2023/08/10 09:26:53;;;;;;;2.55;1.30;;;;;;;17.77;100.00;101190.50;6018315;29;20049;-92
2023/08/10 09:30:18;;;;;;;3.55;1.10;;;;;;;17.82;100.00;101190.09;6020353;29;20041;-90
2023/08/10 09:33:38;;;;;;;3.65;1.30;;;;;;;18.22;100.00;101192.16;6020445;29;20049;-91
2023/08/10 09:36:56;;;;;;;3.45;1.20;;;;;;;18.33;100.00;101190.22;6016960;29;20428;-91
2023/08/10 09:40:41;;;;;;;4.00;1.60;;;;;;;18.77;100.00;101190.16;6022149;29;20057;-91
2023/08/10 09:43:50;;;;;;;5.85;1.60;;;;;;;18.86;100.00;101197.88;6004500;29;20527;-91
2023/08/10 09:47:14;;;;;;;3.03;1.30;;;;;;;18.70;100.00;101195.97;6046724;29;20514;-92
2023/08/10 09:50:34;;;;;;;3.78;1.20;;;;;;;18.69;100.00;101194.34;6073060;29;20040;-90
2023/08/10 09:53:41;;;;;;;2.25;0.93;;;;;;;18.79;100.00;101181.13;6072589;29;20395;-91
2023/08/10 09:56:50;;;;;;;4.03;2.33;;;;;;;19.15;100.00;101196.63;6066545;29;20534;-94
2023/08/10 10:00:29;;;;;;;2.63;1.20;;;;;;;18.83;100.00;101192.13;6058209;29;20048;-94
2023/08/10 10:03:33;;;;;;;4.15;1.35;;;;;;;18.42;100.00;101197.19;6054017;29;20052;-92
2023/08/10 10:06:46;;;;;;;;;;;;;;;;;;;;;
2023/08/10 10:10:20;;;;;;;;;;;;;;;;;;;;;
2023/08/10 10:13:32;;;;;;;3.00;1.20;;;;;;;18.10;100.00;101190.75;6071403;29;20093;-92
2023/08/10 10:16:37;;;;;;;3.10;1.20;;;;;;;18.12;100.00;101185.38;6056447;29;20454;-92
2023/08/10 10:19:40;;;;;;;3.22;1.58;;;;;;;18.22;100.00;101181.66;6053029;29;20365;-92
2023/08/10 10:22:46;;;;;;;1.98;1.00;;;;;;;18.59;100.00;101182.34;6050973;29;20059;-92
2023/08/10 10:26:08;;;;;;;1.20;0.95;;;;;;;19.02;100.00;101175.31;6067313;29;20065;-92
2023/08/10 10:29:16;;;;;;;2.20;1.27;;;;;;;19.46;100.00;101181.09;6074518;29;20083;-94
2023/08/10 10:32:24;;;;;;;2.90;1.13;;;;;;;19.21;100.00;101187.31;6070572;29;20045;-93
2023/08/10 10:36:06;;;;;;;3.63;1.10;;;;;;;18.94;100.00;101187.41;6055443;29;20474;-92
2023/08/10 10:39:23;;;;;;;3.88;1.20;;;;;;;18.65;100.00;101182.50;6069705;29;20128;-95
2023/08/10 10:43:05;;;;;;;1.88;0.98;;;;;;;18.56;100.00;101183.47;6055444;29;20052;-92
2023/08/10 10:46:43;;;;;;;;;;;;;;;;;;;;;
2023/08/10 10:49:54;;;;;;;4.78;1.33;;;;;;;18.27;100.00;101178.59;6071667;29;20060;-92
2023/08/10 10:53:25;;;;;;;2.80;1.20;;;;;;;18.32;100.00;101185.97;6056263;29;20055;-95
2023/08/10 10:57:01;;;;;;;3.33;1.33;;;;;;;18.62;100.00;101176.78;6066438;29;20048;-93
2023/08/10 11:00:08;;;;;;;1.55;1.02;;;;;;;18.99;100.00;101168.56;6071020;29;20485;-92
2023/08/10 11:03:19;;;;;;;2.55;0.93;;;;;;;19.24;100.00;101171.25;6070938;29;20057;-91
2023/08/10 11:06:25;;;;;;;2.58;1.10;;;;;;;19.41;100.00;101169.47;6044465;29;20053;-92
2023/08/10 11:09:29;;;;;;;3.63;1.20;;;;;;;19.67;100.00;101159.63;6071650;29;20044;-92
2023/08/10 11:12:31;;;;;;;2.72;1.20;;;;;;;19.72;100.00;101167.00;6072377;29;20055;-91
2023/08/10 11:15:34;;;;;;;2.67;1.23;;;;;;;19.61;100.00;101169.97;6065001;29;20049;-91
2023/08/10 11:18:37;;;;;;;3.78;1.20;;;;;;;19.23;100.00;101167.81;6071006;29;20064;-93
2023/08/10 11:21:42;;;;;;;3.53;1.20;;;;;;;18.82;100.00;101159.00;6052911;29;20049;-92
2023/08/10 11:24:45;;;;;;;2.90;1.20;;;;;;;18.82;100.00;101153.78;6048744;29;20543;-93
2023/08/10 11:27:49;;;;;;;2.70;1.10;;;;;;;19.11;100.00;101154.16;6054868;29;20051;-92
2023/08/10 11:30:51;;;;;;;2.00;1.05;;;;;;;19.57;100.00;101154.50;6054480;29;20059;-92
2023/08/10 11:33:53;;;;;;;9.93;1.73;;;;;;;19.78;100.00;101140.91;6070554;29;20037;-92
2023/08/10 11:36:55;;;;;;;3.35;1.25;;;;;;;19.57;100.00;101151.06;6070600;29;20209;-93
2023/08/10 11:40:16;;;;;;;2.53;1.10;;;;;;;19.75;100.00;101157.00;6072268;29;20044;-94
2023/08/10 11:43:25;;;;;;;2.15;1.20;;;;;;;19.83;100.00;101156.19;6068861;29;20052;-93
2023/08/10 11:46:27;;;;;;;1.92;1.10;;;;;;;19.95;100.00;101149.59;6050206;29;20120;-93
2023/08/10 11:49:31;;;;;;;4.05;1.35;;;;;;;20.08;100.00;101149.06;6070296;29;20203;-93
2023/08/10 11:52:33;;;;;;;2.78;1.40;;;;;;;20.25;100.00;101149.84;6071070;29;20125;-93
2023/08/10 11:55:41;;;;;;;2.67;1.20;;;;;;;20.46;100.00;101148.44;6054843;29;20049;-95
2023/08/10 11:58:43;;;;;;;3.78;1.15;;;;;;;20.60;100.00;101138.06;6052139;29;20056;-92
2023/08/10 12:01:46;;;;;;;2.20;1.10;;;;;;;20.86;100.00;101143.00;6070728;29;20749;-92
2023/08/10 12:04:59;;;;;;;2.88;1.15;;;;;;;21.07;100.00;101141.59;6068639;29;20126;-92
2023/08/10 12:08:03;;;;;;;2.53;1.23;;;;;;;21.32;100.00;101136.13;6068975;29;20048;-91
2023/08/10 12:11:13;;;;;;;2.42;1.08;;;;;;;21.76;100.00;101140.69;6049338;29;20476;-96
2023/08/10 12:14:26;;;;;;;4.07;1.30;;;;;;;21.76;100.00;101135.44;6052712;29;20497;-90
2023/08/10 12:17:28;;;;;;;4.55;1.20;;;;;;;21.32;100.00;101129.06;6053457;29;20040;-92
2023/08/10 12:20:31;;;;;;;4.13;1.05;;;;;;;20.95;100.00;101132.44;6071440;29;20067;-93
2023/08/10 12:23:33;;;;;;;1.52;0.80;;;;;;;20.95;100.00;101135.06;6068233;29;20418;-91
2023/08/10 12:26:35;;;;;;;2.67;1.02;;;;;;;20.78;100.00;101132.53;6049385;29;20053;-92
2023/08/10 12:29:37;;;;;;;2.60;1.20;;;;;;;21.06;100.00;101126.75;6068765;29;20048;-92
2023/08/10 12:32:42;;;;;;;3.28;1.13;;;;;;;21.37;100.00;101125.88;6045950;29;20041;-92
2023/08/10 12:35:44;;;;;;;3.60;1.20;;;;;;;21.62;100.00;101122.06;6069305;29;20048;-92
2023/08/10 12:38:46;;;;;;;2.92;1.10;;;;;;;21.77;100.00;101123.91;6064979;29;20048;-92
2023/08/10 12:41:48;;;;;;;2.17;0.90;;;;;;;21.67;100.00;101129.44;6066562;29;20403;-92
2023/08/10 12:44:50;;;;;;;2.47;1.02;;;;;;;21.77;100.00;101130.00;6070029;29;20107;-92
2023/08/10 12:47:54;;;;;;;3.35;1.25;;;;;;;21.89;100.00;101135.66;6059620;29;20048;-94
2023/08/10 12:50:57;;;;;;;1.60;0.85;;;;;;;22.01;100.00;101128.94;6069417;29;20045;-90
2023/08/10 12:53:59;;;;;;;3.90;1.02;;;;;;;22.12;100.00;101125.00;6052125;29;20085;-92
2023/08/10 12:57:01;;;;;;;2.70;1.30;;;;;;;22.07;100.00;101124.75;6071118;29;20123;-92
2023/08/10 13:00:14;;;;;;;1.85;1.13;;;;;;;21.79;100.00;101121.88;6066607;29;20151;-91
2023/08/10 13:03:16;;;;;;;2.03;1.00;;;;;;;21.98;100.00;101124.00;6064659;29;20439;-93
2023/08/10 13:06:18;;;;;;;5.00;1.50;;;;;;;22.11;100.00;101115.44;6067687;29;20047;-92
2023/08/10 13:09:21;;;;;;;2.53;1.17;;;;;;;21.92;100.00;101116.81;6066250;29;20048;-91
2023/08/10 13:12:23;;;;;;;2.72;1.40;;;;;;;22.04;100.00;101115.38;6066158;29;20056;-91
2023/08/10 13:15:25;;;;;;;3.03;1.30;;;;;;;22.29;100.00;101113.28;6052411;29;20048;-93
2023/08/10 13:18:27;;;;;;;3.67;1.10;;;;;;;22.50;100.00;101112.53;6053886;29;20135;-91
2023/08/10 13:21:29;;;;;;;4.80;1.08;;;;;;;22.89;100.00;101113.16;6062971;29;20049;-91
2023/08/10 13:24:33;;;;;;;2.95;1.27;;;;;;;23.21;100.00;101117.16;6072558;29;20259;-91
2023/08/10 13:27:35;;;;;;;2.65;1.15;;;;;;;23.38;100.00;101133.56;6041272;29;20450;-91
2023/08/10 13:30:41;;;;;;;3.13;1.17;;;;;;;23.39;98.60;101129.88;6057112;29;20063;-92
2023/08/10 13:33:42;;;;;;;4.15;1.20;;;;;;;23.34;100.00;101116.44;6058195;29;20080;-91
2023/08/10 13:36:44;;;;;;;8.68;1.33;;;;;;;23.51;100.00;101116.97;6057585;29;20052;-91
2023/08/10 13:39:46;;;;;;;1.33;1.10;;;;;;;23.68;100.00;101120.16;6075069;29;20107;-91
2023/08/10 13:42:49;;;;;;;3.13;0.98;;;;;;;23.74;100.00;101120.22;6053523;29;20072;-92
2023/08/10 13:45:51;;;;;;;3.38;1.23;;;;;;;23.48;97.43;101112.06;6075656;29;20118;-91
2023/08/10 13:48:54;;;;;;;4.00;1.60;;;;;;;23.51;96.37;101123.06;6061705;29;20076;-92
2023/08/10 13:51:57;;;;;;;2.33;0.95;;;;;;;23.79;100.00;101117.81;6069867;29;20491;-91
2023/08/10 13:55:03;;;;;;;3.83;1.20;;;;;;;24.12;100.00;101114.53;6071868;29;20045;-91
2023/08/10 13:58:05;;;;;;;3.00;1.33;;;;;;;24.17;97.36;101113.94;6029004;29;20072;-91
2023/08/10 14:01:07;;;;;;;3.75;1.13;;;;;;;24.22;95.04;101116.81;6074781;29;20127;-91
2023/08/10 14:04:10;;;;;;;3.70;1.17;;;;;;;24.24;96.02;101101.56;6073240;29;20048;-92
2023/08/10 14:07:12;;;;;;;1.98;1.25;;;;;;;24.36;95.08;101112.41;6057616;29;20511;-91
2023/08/10 14:10:15;;;;;;;3.00;1.30;;;;;;;24.54;92.22;101111.88;6072788;29;20067;-91
2023/08/10 14:13:17;;;;;;;1.80;1.00;;;;;;;24.69;88.88;101101.94;6074732;29;20084;-91
2023/08/10 14:16:19;;;;;;;2.55;0.93;;;;;;;24.86;91.69;101111.13;6074964;29;20131;-94
2023/08/10 14:19:27;;;;;;;1.42;0.90;;;;;;;24.62;90.80;101106.41;6057430;29;20044;-91